Time;durP1;ratioP1;P1;durP2;ratioP2;P2;SDS_P1;SDS_P2;PMS_P1;PMS_P2;Temp;Humidity;BMP_temperature;BMP_pressure;BME280_temperature;BME280_humidity;BME280_pressure;Samples;Min_cycle;Max_cycle;Signal;HPM_P1;HPM_P2
2022/04/04 00:01:17;;;;;;;18.65;12.23;;;;;;;0.66;82.50;101848.16;5091926;28;20028;-54
2022/04/04 00:03:42;;;;;;;19.80;12.10;;;;;;;0.67;82.14;101843.53;5092423;28;20035;-53
2022/04/04 00:06:08;;;;;;;19.95;12.55;;;;;;;0.70;82.53;101838.47;5092919;28;20021;-53
2022/04/04 00:08:33;;;;;;;19.63;12.20;;;;;;;0.74;82.09;101837.00;5092749;28;20114;-55
2022/04/04 00:11:00;;;;;;;18.48;11.60;;;;;;;0.70;82.43;101830.31;5092768;28;20482;-53
2022/04/04 00:13:27;;;;;;;20.27;12.40;;;;;;;0.73;81.87;101835.34;5092992;28;20020;-51
2022/04/04 00:15:52;;;;;;;19.25;11.55;;;;;;;0.74;82.39;101828.00;5092866;28;20032;-55
2022/04/04 00:18:18;;;;;;;19.55;11.50;;;;;;;0.72;82.16;101822.78;5092298;28;20032;-55
2022/04/04 00:20:44;;;;;;;19.45;12.57;;;;;;;0.71;81.86;101821.09;5092281;28;20433;-54
2022/04/04 00:23:12;;;;;;;19.35;11.63;;;;;;;0.69;82.05;101816.91;5092300;28;20024;-54
2022/04/04 00:25:42;;;;;;;20.25;12.35;;;;;;;0.67;82.22;101817.13;5092823;28;20028;-55
2022/04/04 00:28:08;;;;;;;20.38;12.00;;;;;;;0.65;82.12;101804.78;5092675;28;20066;-54
2022/04/04 00:30:33;;;;;;;20.20;12.77;;;;;;;0.62;81.99;101795.16;5092395;28;20401;-51
2022/04/04 00:32:59;;;;;;;19.73;12.73;;;;;;;0.64;82.21;101806.69;5092654;28;20036;-54
2022/04/04 00:35:24;;;;;;;21.58;13.95;;;;;;;0.58;82.36;101800.19;5092654;28;20039;-53
2022/04/04 00:37:49;;;;;;;20.40;13.70;;;;;;;0.52;82.75;101801.03;5092657;28;20020;-55
2022/04/04 00:40:14;;;;;;;20.90;13.90;;;;;;;0.52;82.73;101795.59;5092720;28;20027;-53
2022/04/04 00:42:40;;;;;;;20.58;13.32;;;;;;;0.50;82.71;101795.00;5091073;28;20032;-52
2022/04/04 00:45:06;;;;;;;21.20;13.45;;;;;;;0.50;82.51;101791.41;5092047;28;20024;-53
2022/04/04 00:47:31;;;;;;;22.35;14.27;;;;;;;0.50;82.24;101789.56;5091762;28;20055;-52
2022/04/04 00:49:57;;;;;;;22.00;14.50;;;;;;;0.45;82.76;101781.19;5092540;28;20082;-54
2022/04/04 00:52:22;;;;;;;22.75;15.35;;;;;;;0.44;83.03;101774.06;5091919;28;20028;-52
2022/04/04 00:54:47;;;;;;;23.15;15.55;;;;;;;0.42;83.14;101774.28;5092644;28;20066;-56
2022/04/04 00:57:14;;;;;;;21.88;15.13;;;;;;;0.39;83.12;101776.59;5093525;28;20078;-55
2022/04/04 00:59:39;;;;;;;22.48;15.20;;;;;;;0.38;83.09;101769.47;5095942;28;20078;-55
2022/04/04 01:02:05;;;;;;;22.77;15.93;;;;;;;0.32;83.27;101762.19;5095579;28;20028;-54
2022/04/04 01:04:30;;;;;;;21.90;14.55;;;;;;;0.32;82.96;101760.28;5095261;28;20059;-53
2022/04/04 01:06:58;;;;;;;22.70;15.52;;;;;;;0.37;82.87;101760.50;5095888;28;20028;-53
2022/04/04 01:09:24;;;;;;;23.00;15.02;;;;;;;0.32;83.32;101757.56;5095625;28;20035;-54
2022/04/04 01:12:06;;;;;;;22.50;15.15;;;;;;;0.29;82.93;101747.94;5095931;28;20028;-55
2022/04/04 01:14:32;;;;;;;22.90;15.75;;;;;;;0.32;83.88;101752.13;5095998;28;20036;-52
2022/04/04 01:16:57;;;;;;;24.10;16.40;;;;;;;0.28;83.30;101743.56;5095439;28;20028;-53
2022/04/04 01:19:23;;;;;;;21.98;15.10;;;;;;;0.33;82.75;101737.47;5095672;28;20498;-54
2022/04/04 01:21:48;;;;;;;21.90;14.75;;;;;;;0.30;82.70;101736.03;5094881;28;20023;-54
2022/04/04 01:24:18;;;;;;;22.63;15.32;;;;;;;0.33;83.17;101732.03;5094539;28;20119;-53
2022/04/04 01:26:51;;;;;;;21.17;14.40;;;;;;;0.36;82.88;101734.31;5094992;28;20449;-53
2022/04/04 01:29:17;;;;;;;23.52;15.25;;;;;;;0.27;82.68;101711.13;5095178;28;20062;-52
2022/04/04 01:31:42;;;;;;;23.00;16.00;;;;;;;0.29;83.07;101722.59;5095757;28;20067;-51
2022/04/04 01:34:07;;;;;;;22.60;14.73;;;;;;;0.31;83.03;101720.50;5094442;28;20020;-54
2022/04/04 01:36:33;;;;;;;22.77;14.55;;;;;;;0.29;82.83;101712.56;5095221;28;20032;-52
2022/04/04 01:38:59;;;;;;;23.08;14.63;;;;;;;0.32;82.46;101705.03;5094999;28;20388;-54
2022/04/04 01:41:25;;;;;;;24.08;14.98;;;;;;;0.29;81.99;101693.50;5094890;28;20365;-52
2022/04/04 01:43:50;;;;;;;24.00;14.77;;;;;;;0.32;81.67;101692.25;5094932;28;20057;-54
2022/04/04 01:46:25;;;;;;;23.38;15.15;;;;;;;0.40;81.14;101683.81;5094986;28;20064;-52
2022/04/04 01:48:55;;;;;;;21.25;14.48;;;;;;;0.39;81.34;101679.44;5094522;28;20077;-54
2022/04/04 01:51:20;;;;;;;21.00;14.95;;;;;;;0.37;81.32;101680.69;5094086;28;20077;-51
2022/04/04 01:53:46;;;;;;;22.33;14.57;;;;;;;0.33;82.05;101668.59;5094629;28;20039;-52
2022/04/04 01:56:12;;;;;;;23.67;15.27;;;;;;;0.34;80.98;101662.06;5094668;28;20028;-54
2022/04/04 01:58:39;;;;;;;22.25;14.00;;;;;;;0.40;80.91;101661.22;5094886;28;20084;-54
2022/04/04 02:01:13;;;;;;;21.85;14.52;;;;;;;0.44;81.02;101663.28;5094751;28;20219;-54
2022/04/04 02:03:39;;;;;;;;;;;;;;;0.59;80.20;101646.66;5094704;28;20050;-53
2022/04/04 02:06:05;;;;;;;22.92;14.05;;;;;;;0.54;79.42;101641.00;5094283;28;19923;-54
2022/04/04 02:08:31;;;;;;;20.92;13.88;;;;;;;0.66;79.60;101627.56;5093970;28;20024;-52
2022/04/04 02:10:57;;;;;;;21.70;13.98;;;;;;;0.61;79.16;101636.34;5094492;28;20028;-54
2022/04/04 02:13:25;;;;;;;21.08;13.32;;;;;;;0.61;79.54;101630.91;5094520;28;20031;-55
2022/04/04 02:16:00;;;;;;;22.77;14.77;;;;;;;0.68;79.78;101625.41;5094391;28;20032;-54
2022/04/04 02:18:29;;;;;;;21.45;12.85;;;;;;;0.68;78.96;101627.31;5094549;28;20036;-54
2022/04/04 02:20:55;;;;;;;21.90;13.65;;;;;;;0.71;78.92;101622.25;5094316;28;20149;-55
2022/04/04 02:23:20;;;;;;;21.67;13.52;;;;;;;0.74;78.60;101613.66;5093866;28;20103;-55
2022/04/04 02:25:47;;;;;;;23.98;13.55;;;;;;;0.80;79.25;101622.00;5094005;28;20020;-53
2022/04/04 02:28:13;;;;;;;21.10;13.73;;;;;;;0.90;78.33;101616.88;5084890;28;20078;-56
2022/04/04 02:30:42;;;;;;;22.02;13.68;;;;;;;0.86;78.50;101602.88;5074065;28;20366;-51
2022/04/04 02:33:08;;;;;;;21.02;13.38;;;;;;;0.90;78.34;101595.09;5073682;28;20099;-55
2022/04/04 02:35:34;;;;;;;21.95;13.77;;;;;;;0.92;78.98;101598.44;5073620;28;20036;-54
2022/04/04 02:38:00;;;;;;;22.67;13.70;;;;;;;0.97;78.08;101589.59;5073342;28;20024;-54
2022/04/04 02:40:25;;;;;;;23.13;14.05;;;;;;;0.96;78.32;101577.84;5073360;28;20031;-55
2022/04/04 02:42:51;;;;;;;22.30;14.35;;;;;;;0.98;78.37;101581.19;5072716;28;20385;-54
2022/04/04 02:45:16;;;;;;;21.60;13.32;;;;;;;1.01;78.34;101567.13;5072829;28;20035;-53
2022/04/04 02:47:43;;;;;;;22.35;13.18;;;;;;;1.09;77.91;101580.44;5072327;28;20087;-53
2022/04/04 02:50:09;;;;;;;21.70;14.15;;;;;;;1.11;77.73;101569.31;5073564;28;20374;-55
2022/04/04 02:52:34;;;;;;;22.02;13.40;;;;;;;1.16;77.39;101563.19;5072940;28;20077;-53
2022/04/04 02:56:28;;;;;;;21.13;13.57;;;;;;;1.16;77.83;101552.28;5071939;28;20505;-53
2022/04/04 02:57:49;;;;;;;22.58;13.90;;;;;;;1.17;77.99;101548.50;5073059;28;20119;-53
2022/04/04 03:00:18;;;;;;;21.92;13.68;;;;;;;1.24;78.06;101550.09;5072853;28;20488;-55
2022/04/04 03:02:44;;;;;;;20.15;12.65;;;;;;;1.26;77.24;101536.25;5073202;28;20020;-55
2022/04/04 03:05:09;;;;;;;20.88;13.00;;;;;;;1.26;77.33;101529.97;5072981;28;20051;-54
2022/04/04 03:07:34;;;;;;;21.50;13.80;;;;;;;1.24;77.68;101524.72;5072892;28;20032;-54
2022/04/04 03:10:00;;;;;;;21.40;13.23;;;;;;;1.23;77.73;101514.88;5054314;28;20435;-55
2022/04/04 03:12:25;;;;;;;21.55;13.15;;;;;;;1.21;78.14;101525.19;5072130;28;20035;-53
2022/04/04 03:14:51;;;;;;;20.67;13.05;;;;;;;1.15;77.90;101510.59;5073124;28;20024;-54
2022/04/04 03:17:16;;;;;;;21.63;13.50;;;;;;;1.12;78.79;101510.22;5072333;28;20118;-54
2022/04/04 03:19:42;;;;;;;21.80;13.38;;;;;;;1.12;78.65;101502.84;5072146;28;20029;-54
2022/04/04 03:22:07;;;;;;;20.90;13.30;;;;;;;1.08;78.53;101498.94;5071645;28;20024;-53
2022/04/04 03:24:32;;;;;;;21.85;13.40;;;;;;;1.04;79.08;101495.78;5072166;28;20028;-56
2022/04/04 03:26:58;;;;;;;23.08;13.55;;;;;;;1.09;78.79;101490.53;5072462;28;20020;-54
2022/04/04 03:29:23;;;;;;;20.65;13.93;;;;;;;1.13;78.71;101492.81;5072467;28;20051;-54
2022/04/04 03:31:48;;;;;;;23.17;14.00;;;;;;;1.09;79.11;101484.22;5071765;28;20036;-53
2022/04/04 03:34:13;;;;;;;22.42;13.35;;;;;;;1.11;78.78;101475.84;5072853;28;20512;-55
2022/04/04 03:36:39;;;;;;;21.70;12.52;;;;;;;1.16;79.01;101475.97;5073115;28;20028;-54
2022/04/04 03:39:04;;;;;;;21.15;13.35;;;;;;;1.13;79.12;101471.00;5073063;28;20059;-52
2022/04/04 03:41:30;;;;;;;21.45;13.60;;;;;;;1.15;79.03;101472.44;5073231;28;20377;-54
2022/04/04 03:43:55;;;;;;;20.55;12.88;;;;;;;1.18;79.15;101462.97;5072915;28;20025;-55
2022/04/04 03:46:20;;;;;;;20.52;12.27;;;;;;;1.15;79.81;101457.94;5072740;28;20024;-54
2022/04/04 03:48:46;;;;;;;23.15;14.10;;;;;;;1.15;79.64;101453.34;5072826;28;20029;-50
2022/04/04 03:51:12;;;;;;;21.38;13.13;;;;;;;1.21;79.09;101451.59;5072605;28;20080;-56
2022/04/04 03:53:38;;;;;;;21.50;13.23;;;;;;;1.17;79.54;101448.50;5073017;28;20477;-52
2022/04/04 03:56:03;;;;;;;21.08;13.27;;;;;;;1.17;79.19;101440.34;5072719;28;20114;-55
2022/04/04 03:58:29;;;;;;;18.95;11.82;;;;;;;1.20;79.36;101439.84;5072534;28;20415;-55
2022/04/04 04:00:54;;;;;;;21.30;12.35;;;;;;;1.21;79.57;101432.53;5072875;28;20070;-53
2022/04/04 04:03:20;;;;;;;20.85;13.50;;;;;;;1.23;79.79;101428.50;5072724;28;20035;-54
2022/04/04 04:05:45;;;;;;;21.27;13.25;;;;;;;1.24;80.14;101426.59;5072813;28;20048;-55
2022/04/04 04:08:10;;;;;;;21.83;12.48;;;;;;;1.19;80.23;101421.84;5072613;28;20024;-55
2022/04/04 04:10:36;;;;;;;21.63;13.65;;;;;;;1.21;79.99;101416.19;5072570;28;20051;-55
2022/04/04 04:13:05;;;;;;;20.95;14.00;;;;;;;1.20;80.42;101412.59;5072330;28;20427;-54
2022/04/04 04:15:31;;;;;;;20.88;12.52;;;;;;;1.31;79.79;101408.28;5072673;28;20044;-54
2022/04/04 04:17:56;;;;;;;23.85;14.40;;;;;;;1.23;80.42;101398.53;5072578;28;20470;-55
2022/04/04 04:20:31;;;;;;;22.52;13.77;;;;;;;1.22;80.57;101396.03;5072691;28;20162;-54
2022/04/04 04:23:07;;;;;;;21.67;13.70;;;;;;;1.22;80.39;101385.97;5072060;28;20077;-55
2022/04/04 04:25:34;;;;;;;24.48;14.65;;;;;;;1.27;80.62;101390.72;5071930;28;20040;-54
2022/04/04 04:28:02;;;;;;;21.00;14.40;;;;;;;1.19;80.58;101380.94;5072175;28;20043;-57
2022/04/04 04:30:28;;;;;;;20.88;12.82;;;;;;;1.32;80.81;101379.97;5072538;28;20024;-52
2022/04/04 04:32:54;;;;;;;23.38;12.68;;;;;;;1.35;80.09;101376.75;5074856;28;20119;-55
2022/04/04 04:35:20;;;;;;;24.00;13.32;;;;;;;1.36;80.77;101363.97;5076169;28;20073;-55
2022/04/04 04:37:46;;;;;;;21.50;13.35;;;;;;;1.45;80.46;101365.31;5058255;28;20392;-55
2022/04/04 04:40:12;;;;;;;21.55;13.20;;;;;;;1.38;80.48;101359.09;5075755;28;20392;-55
2022/04/04 04:42:38;;;;;;;22.15;14.20;;;;;;;1.37;80.49;101352.81;5075792;28;20107;-53
2022/04/04 04:45:05;;;;;;;21.95;13.48;;;;;;;1.38;80.81;101340.88;5075645;28;20174;-53
2022/04/04 04:47:31;;;;;;;22.80;14.05;;;;;;;1.53;79.85;101347.75;5075938;28;20028;-53
2022/04/04 04:49:58;;;;;;;21.67;13.02;;;;;;;1.57;79.85;101338.06;5075910;28;20060;-53
2022/04/04 04:52:25;;;;;;;22.60;13.68;;;;;;;1.48;80.79;101340.28;5075844;28;20481;-53
2022/04/04 04:54:51;;;;;;;21.77;13.30;;;;;;;1.51;80.81;101328.91;5075777;28;20021;-53
2022/04/04 04:57:16;;;;;;;22.42;13.85;;;;;;;1.57;79.93;101329.88;5075952;28;20542;-52
2022/04/04 04:59:42;;;;;;;20.88;13.40;;;;;;;1.54;80.36;101322.16;5075329;28;20473;-53
2022/04/04 05:02:07;;;;;;;23.40;13.88;;;;;;;1.51;80.46;101314.47;5075459;28;20055;-53
2022/04/04 05:04:32;;;;;;;21.10;13.65;;;;;;;1.59;80.45;101310.56;5075400;28;20368;-50
2022/04/04 05:06:57;;;;;;;21.73;14.23;;;;;;;1.58;80.98;101306.16;5075414;28;20480;-51
2022/04/04 05:09:23;;;;;;;23.02;14.50;;;;;;;1.65;80.36;101301.44;5075138;28;20510;-50
2022/04/04 05:11:48;;;;;;;22.15;13.88;;;;;;;1.64;80.71;101297.88;5075528;28;20035;-54
2022/04/04 05:14:16;;;;;;;22.27;14.30;;;;;;;1.65;80.87;101301.44;5075503;28;20035;-53
2022/04/04 05:16:48;;;;;;;23.92;14.32;;;;;;;1.83;80.67;101292.31;5075212;28;20020;-54
2022/04/04 05:19:17;;;;;;;23.02;15.13;;;;;;;1.86;80.11;101280.94;5075051;28;20388;-54
2022/04/04 05:21:43;;;;;;;21.90;14.05;;;;;;;1.84;80.21;101283.06;5057158;28;20489;-50
2022/04/04 05:24:09;;;;;;;22.85;14.55;;;;;;;1.90;79.51;101273.91;5075081;28;20060;-54
2022/04/04 05:26:34;;;;;;;22.17;14.27;;;;;;;1.91;81.08;101270.13;5074884;28;20069;-55
2022/04/04 05:29:00;;;;;;;22.90;14.73;;;;;;;1.94;79.66;101257.91;5074801;28;20024;-49
2022/04/04 05:31:25;;;;;;;23.15;13.77;;;;;;;2.00;80.12;101262.44;5075030;28;20384;-54
2022/04/04 05:33:51;;;;;;;23.90;15.13;;;;;;;1.99;80.12;101253.41;5075181;28;20032;-51
2022/04/04 05:36:16;;;;;;;21.63;14.05;;;;;;;2.03;79.63;101254.59;5074605;28;20037;-54
2022/04/04 05:38:42;;;;;;;22.88;14.27;;;;;;;2.11;79.78;101255.28;5074707;28;20044;-54
2022/04/04 05:41:07;;;;;;;24.20;14.32;;;;;;;2.09;79.84;101244.63;5074985;28;20028;-54
2022/04/04 05:43:32;;;;;;;22.77;12.35;;;;;;;2.20;79.69;101242.94;5074767;28;20473;-54
2022/04/04 05:45:58;;;;;;;24.48;14.05;;;;;;;2.18;79.80;101240.44;5074867;28;20039;-54
2022/04/04 05:48:25;;;;;;;22.77;13.43;;;;;;;2.23;79.74;101230.69;5074837;28;20158;-53
2022/04/04 05:50:51;;;;;;;23.60;13.98;;;;;;;2.26;80.60;101230.22;5074807;28;20036;-55
2022/04/04 05:53:16;;;;;;;23.33;13.70;;;;;;;2.27;80.22;101218.22;5075343;28;20036;-57
2022/04/04 05:55:42;;;;;;;22.67;14.50;;;;;;;2.36;79.37;101214.06;5074480;28;20033;-55
2022/04/04 05:58:07;;;;;;;24.02;14.75;;;;;;;2.43;79.33;101214.75;5075014;28;20031;-55
2022/04/04 06:00:32;;;;;;;24.55;14.20;;;;;;;2.42;79.32;101207.63;5074648;28;20158;-53
2022/04/04 06:02:57;;;;;;;23.55;14.30;;;;;;;2.45;79.67;101207.13;5080249;28;20025;-52
2022/04/04 06:05:23;;;;;;;22.30;13.65;;;;;;;2.47;79.83;101201.44;5075001;28;20125;-54
2022/04/04 06:07:48;;;;;;;21.05;13.50;;;;;;;2.53;79.30;101194.16;5074095;28;20025;-54
2022/04/04 06:10:15;;;;;;;22.08;13.30;;;;;;;2.60;78.47;101190.22;5074669;28;20021;-52
2022/04/04 06:12:43;;;;;;;22.05;13.65;;;;;;;2.59;78.89;101195.94;5074390;28;20438;-54
2022/04/04 06:15:08;;;;;;;21.35;13.35;;;;;;;2.62;78.39;101184.50;5074252;28;20025;-55
2022/04/04 06:17:34;;;;;;;20.52;12.57;;;;;;;2.73;78.14;101182.81;5074168;28;20039;-54
2022/04/04 06:19:59;;;;;;;23.23;14.18;;;;;;;2.78;78.24;101178.28;5074352;28;20036;-52
2022/04/04 06:22:25;;;;;;;22.60;13.13;;;;;;;2.94;77.46;101184.00;5073901;28;20068;-50
2022/04/04 06:24:51;;;;;;;21.60;12.60;;;;;;;2.94;77.23;101182.09;5073969;28;20610;-54
2022/04/04 06:27:16;;;;;;;24.07;13.23;;;;;;;3.06;76.46;101178.44;5073803;28;20107;-54
2022/04/04 06:29:42;;;;;;;22.48;13.40;;;;;;;3.12;75.99;101181.03;5055667;28;20055;-54
2022/04/04 06:32:09;;;;;;;21.73;13.98;;;;;;;3.19;75.01;101166.34;5074240;28;20132;-54
2022/04/04 06:34:34;;;;;;;22.15;14.27;;;;;;;3.21;75.58;101158.75;5071143;28;20028;-53
2022/04/04 06:37:00;;;;;;;24.17;13.80;;;;;;;3.27;75.06;101174.16;5072863;28;20028;-52
2022/04/04 06:39:25;;;;;;;23.60;13.32;;;;;;;3.35;73.71;101159.22;5072029;28;20032;-54
2022/04/04 06:41:51;;;;;;;21.10;13.07;;;;;;;3.33;74.41;101151.28;5073383;28;20033;-53
2022/04/04 06:44:17;;;;;;;23.58;13.70;;;;;;;3.45;73.88;101136.69;5073796;28;20029;-53
2022/04/04 06:46:43;;;;;;;22.63;13.80;;;;;;;3.50;73.37;101143.03;5072234;28;20045;-54
2022/04/04 06:49:08;;;;;;;23.10;12.98;;;;;;;3.61;72.24;101144.03;5070236;28;20048;-54
2022/04/04 06:51:34;;;;;;;22.80;13.15;;;;;;;3.56;72.59;101125.63;5071287;28;20038;-51
2022/04/04 06:54:03;;;;;;;24.85;13.38;;;;;;;3.59;73.45;101125.13;5070782;28;20036;-51
2022/04/04 06:56:29;;;;;;;23.67;14.48;;;;;;;3.58;73.92;101122.66;5071560;28;20489;-53
2022/04/04 06:58:54;;;;;;;22.55;13.23;;;;;;;3.68;73.00;101130.19;5071325;28;20036;-52
2022/04/04 07:01:19;;;;;;;24.73;14.05;;;;;;;3.65;72.85;101117.00;5070938;28;20033;-51
2022/04/04 07:03:46;;;;;;;23.88;14.00;;;;;;;3.74;72.70;101105.34;5070921;28;20059;-50
2022/04/04 07:06:12;;;;;;;23.90;13.75;;;;;;;3.80;72.49;101103.50;5073705;28;20033;-54
2022/04/04 07:08:38;;;;;;;23.25;14.07;;;;;;;3.84;72.82;101090.97;5064722;28;20031;-51
2022/04/04 07:11:03;;;;;;;22.00;13.70;;;;;;;3.88;72.71;101097.59;5079105;28;20492;-54
2022/04/04 07:13:31;;;;;;;22.00;13.52;;;;;;;3.98;71.74;101082.38;5079003;28;20495;-52
2022/04/04 07:15:56;;;;;;;21.33;13.20;;;;;;;4.04;71.48;101082.16;5079627;28;20036;-50
2022/04/04 07:18:22;;;;;;;21.73;13.05;;;;;;;4.08;71.01;101087.97;5081019;28;20020;-51
2022/04/04 07:20:47;;;;;;;21.63;14.15;;;;;;;4.16;70.98;101064.78;5078987;28;20033;-55
2022/04/04 07:23:13;;;;;;;21.70;13.45;;;;;;;4.19;70.64;101067.81;5069171;28;20036;-50
2022/04/04 07:25:38;;;;;;;23.00;14.00;;;;;;;4.21;71.04;101062.91;5071154;28;20393;-50
2022/04/04 07:28:04;;;;;;;20.40;12.15;;;;;;;4.30;70.95;101067.94;5070905;28;20333;-51
2022/04/04 07:30:30;;;;;;;21.98;14.30;;;;;;;4.34;70.47;101069.09;5070730;28;20043;-53
2022/04/04 07:32:55;;;;;;;21.33;13.23;;;;;;;4.41;70.07;101053.25;5070838;28;20025;-53
2022/04/04 07:35:21;;;;;;;21.40;13.40;;;;;;;4.45;69.85;101057.13;5070686;28;20028;-52
2022/04/04 07:37:49;;;;;;;22.33;13.10;;;;;;;4.51;69.70;101053.34;5070912;28;20050;-51
2022/04/04 07:40:16;;;;;;;21.08;13.05;;;;;;;4.53;70.00;101048.41;5057135;28;20040;-51
2022/04/04 07:42:43;;;;;;;21.40;13.25;;;;;;;4.60;69.54;101039.16;5061185;28;20723;-54
2022/04/04 07:45:11;;;;;;;22.00;12.63;;;;;;;4.65;69.19;101042.78;5070504;28;20031;-54
2022/04/04 07:47:37;;;;;;;21.85;13.38;;;;;;;4.72;68.90;101039.00;5070198;28;20492;-50
2022/04/04 07:50:04;;;;;;;21.60;13.18;;;;;;;4.76;68.39;101038.19;5070426;28;20547;-54
2022/04/04 07:52:29;;;;;;;22.70;13.00;;;;;;;4.81;69.00;101030.03;5072442;28;20043;-55
2022/04/04 07:54:54;;;;;;;20.98;12.68;;;;;;;4.90;68.72;101019.38;5090500;28;20028;-51
2022/04/04 07:57:20;;;;;;;21.13;12.77;;;;;;;4.96;68.29;101012.03;5072155;28;20038;-53
2022/04/04 07:59:46;;;;;;;19.95;12.07;;;;;;;4.99;68.48;101006.84;5090294;28;20024;-52
2022/04/04 08:02:11;;;;;;;23.13;12.95;;;;;;;5.07;68.58;100997.28;5090237;28;20070;-53
2022/04/04 08:04:37;;;;;;;22.77;13.45;;;;;;;5.06;67.93;101000.28;5090091;28;20044;-53
2022/04/04 08:07:02;;;;;;;21.70;12.60;;;;;;;5.11;68.04;100998.41;5093339;28;20040;-52
2022/04/04 08:09:27;;;;;;;22.67;12.82;;;;;;;5.11;68.50;100998.41;5094378;28;20028;-53
2022/04/04 08:11:54;;;;;;;21.45;12.98;;;;;;;5.21;67.61;100985.81;5094438;28;20070;-52
2022/04/04 08:14:21;;;;;;;22.23;13.77;;;;;;;5.14;68.78;100970.44;5094420;28;20594;-51
2022/04/04 08:16:47;;;;;;;22.65;13.90;;;;;;;5.22;68.21;100976.50;5094451;28;20028;-54
2022/04/04 08:19:13;;;;;;;24.77;13.32;;;;;;;5.30;67.70;100965.88;5094421;28;20088;-53
2022/04/04 08:21:41;;;;;;;20.67;13.13;;;;;;;5.32;67.35;100973.81;5094267;28;20513;-53
2022/04/04 08:24:07;;;;;;;20.27;13.18;;;;;;;5.42;66.99;100968.38;5092568;28;20240;-53
2022/04/04 08:26:33;;;;;;;22.88;13.30;;;;;;;5.50;66.84;100944.25;5094231;28;20453;-54
2022/04/04 08:28:58;;;;;;;21.40;12.98;;;;;;;5.58;66.08;100951.94;5094173;28;20032;-50
2022/04/04 08:31:24;;;;;;;22.35;13.38;;;;;;;5.67;65.67;100935.81;5094143;28;20039;-50
2022/04/04 08:33:49;;;;;;;21.30;11.98;;;;;;;5.73;65.61;100932.81;5094257;28;20040;-54
2022/04/04 08:36:14;;;;;;;20.67;12.10;;;;;;;5.82;64.73;100941.31;5093437;28;20510;-53
2022/04/04 08:38:41;;;;;;;22.98;12.23;;;;;;;5.93;64.16;100928.44;5093973;28;20054;-52
2022/04/04 08:41:09;;;;;;;20.08;11.82;;;;;;;5.92;64.11;100932.28;5093993;28;20369;-54
2022/04/04 08:43:39;;;;;;;20.90;12.50;;;;;;;6.03;64.76;100919.41;5094046;28;20031;-55
2022/04/04 08:46:06;;;;;;;20.77;11.55;;;;;;;6.11;63.54;100923.53;5093805;28;20044;-54
2022/04/04 08:48:37;;;;;;;21.65;12.20;;;;;;;6.17;63.38;100923.28;5093769;28;20036;-54
2022/04/04 08:51:03;;;;;;;19.48;11.18;;;;;;;6.18;63.13;100910.34;5093983;28;20036;-54
2022/04/04 08:53:29;;;;;;;19.92;11.63;;;;;;;6.11;63.90;100905.13;5093919;28;20028;-55
2022/04/04 08:55:57;;;;;;;20.70;11.65;;;;;;;6.14;63.52;100903.78;5094014;28;20384;-53
2022/04/04 08:58:22;;;;;;;21.98;12.57;;;;;;;6.15;63.53;100900.75;5093738;28;20032;-54
2022/04/04 09:00:47;;;;;;;22.25;12.20;;;;;;;6.14;63.55;100906.53;5093551;28;20034;-52
2022/04/04 09:03:22;;;;;;;22.15;12.70;;;;;;;6.11;63.64;100891.38;5093732;28;20024;-54
2022/04/04 09:05:51;;;;;;;22.15;12.85;;;;;;;6.05;64.77;100898.81;5093550;28;20059;-53
2022/04/04 09:08:18;;;;;;;20.40;11.88;;;;;;;6.12;64.12;100894.97;5093837;28;20115;-51
2022/04/04 09:10:44;;;;;;;21.77;13.13;;;;;;;6.05;64.59;100885.06;5094026;28;20340;-54
2022/04/04 09:13:16;;;;;;;21.48;13.05;;;;;;;6.14;64.77;100879.88;5093317;28;20469;-53
2022/04/04 09:16:08;;;;;;;19.98;11.88;;;;;;;6.22;64.86;100886.72;5087082;28;20024;-50
2022/04/04 09:18:37;;;;;;;23.05;13.07;;;;;;;5.99;66.07;100882.59;5064107;28;20036;-55
2022/04/04 09:21:04;;;;;;;21.58;12.88;;;;;;;5.96;66.23;100889.44;5083389;28;20467;-54
2022/04/04 09:23:33;;;;;;;21.35;12.98;;;;;;;6.06;65.76;100878.47;5067351;28;20075;-52
2022/04/04 09:26:00;;;;;;;20.83;12.68;;;;;;;5.96;66.29;100866.66;5083785;28;20491;-55
2022/04/04 09:28:26;;;;;;;21.80;13.43;;;;;;;5.90;67.84;100868.56;5079878;28;20514;-52
2022/04/04 09:31:08;;;;;;;20.88;12.90;;;;;;;5.98;67.10;100869.94;5082535;28;20058;-55
2022/04/04 09:33:35;;;;;;;22.58;13.63;;;;;;;5.91;68.45;100871.03;5092995;28;20028;-53
2022/04/04 09:36:01;;;;;;;24.15;13.60;;;;;;;5.99;68.63;100858.72;5084742;28;20369;-55
2022/04/04 09:38:26;;;;;;;22.20;14.38;;;;;;;5.93;69.13;100862.53;5070391;28;20036;-56
2022/04/04 09:40:51;;;;;;;24.60;14.23;;;;;;;5.94;69.48;100864.19;5082730;28;20032;-54
2022/04/04 09:43:17;;;;;;;22.10;13.50;;;;;;;5.93;70.21;100859.78;5082486;28;20037;-51
2022/04/04 09:45:44;;;;;;;24.27;13.85;;;;;;;5.88;70.90;100852.38;5087471;28;20036;-54
2022/04/04 09:48:11;;;;;;;25.98;14.23;;;;;;;5.82;71.16;100847.16;5084952;28;20039;-55
2022/04/04 09:50:46;;;;;;;23.10;14.18;;;;;;;5.84;71.53;100847.72;5072840;28;20566;-52
2022/04/04 09:53:23;;;;;;;22.65;13.30;;;;;;;5.82;71.19;100856.19;5080425;28;20070;-52
2022/04/04 09:55:56;;;;;;;20.98;12.70;;;;;;;5.82;70.90;100842.47;5081329;28;20484;-55
2022/04/04 09:58:25;;;;;;;21.98;13.57;;;;;;;5.68;72.08;100844.13;5080289;28;20020;-52
2022/04/04 10:00:51;;;;;;;26.95;13.85;;;;;;;5.62;72.29;100849.59;5092728;28;20031;-52
2022/04/04 10:03:18;;;;;;;23.55;15.00;;;;;;;5.58;73.76;100837.53;5092468;28;20442;-51
2022/04/04 10:05:56;;;;;;;21.13;13.27;;;;;;;5.56;73.44;100836.97;5092612;28;20470;-52
2022/04/04 10:08:24;;;;;;;22.55;13.73;;;;;;;5.60;73.79;100831.75;5092292;28;20122;-53
2022/04/04 10:10:51;;;;;;;25.08;14.00;;;;;;;5.56;74.34;100830.69;5092722;28;20031;-53
2022/04/04 10:13:17;;;;;;;23.63;14.60;;;;;;;5.55;75.39;100821.59;5092455;28;20024;-51
2022/04/04 10:15:43;;;;;;;24.85;15.40;;;;;;;5.49;76.20;100822.69;5074024;28;20085;-53
2022/04/04 10:18:10;;;;;;;23.23;15.40;;;;;;;5.53;76.45;100812.81;5092276;28;20046;-53
2022/04/04 10:20:36;;;;;;;22.35;14.73;;;;;;;5.60;75.73;100813.38;5092276;28;20026;-55
2022/04/04 10:23:03;;;;;;;24.27;15.18;;;;;;;5.62;76.63;100808.44;5090569;28;20103;-54
2022/04/04 10:25:30;;;;;;;22.17;14.25;;;;;;;5.64;76.42;100808.19;5092152;28;20031;-55
2022/04/04 10:27:56;;;;;;;24.50;15.05;;;;;;;5.64;77.57;100816.41;5091983;28;20028;-54
2022/04/04 10:30:40;;;;;;;23.08;14.50;;;;;;;5.83;76.60;100807.63;5091135;28;20093;-55
2022/04/04 10:33:17;;;;;;;23.85;15.90;;;;;;;5.84;76.75;100798.28;5092476;28;20059;-53
2022/04/04 10:35:42;;;;;;;22.45;14.10;;;;;;;5.85;77.46;100805.44;5092471;28;20642;-55
2022/04/04 10:38:07;;;;;;;23.20;15.20;;;;;;;5.82;77.35;100806.78;5091992;28;20031;-54
2022/04/04 10:40:34;;;;;;;22.48;14.07;;;;;;;5.78;78.27;100808.44;5090986;28;20514;-54
2022/04/04 10:43:14;;;;;;;23.75;15.02;;;;;;;5.69;78.72;100810.91;5087747;28;20029;-54
2022/04/04 10:46:12;;;;;;;24.52;15.10;;;;;;;5.78;79.00;100808.44;5091182;28;20036;-55
2022/04/04 10:48:42;;;;;;;23.77;15.02;;;;;;;5.67;80.51;100804.06;5039496;28;20044;-51
2022/04/04 10:51:17;;;;;;;21.90;13.57;;;;;;;5.65;79.98;100785.13;5071347;28;20029;-53
2022/04/04 10:53:47;;;;;;;25.58;15.65;;;;;;;5.68;80.83;100789.22;5091912;28;20036;-54
2022/04/04 10:56:24;;;;;;;25.13;15.85;;;;;;;5.68;81.51;100783.75;5074097;28;20023;-53
2022/04/04 10:58:53;;;;;;;23.63;14.80;;;;;;;5.68;82.32;100787.28;5072770;28;20432;-55
2022/04/04 11:01:21;;;;;;;21.85;14.10;;;;;;;5.71;82.13;100778.53;5077713;28;20054;-53
2022/04/04 11:03:52;;;;;;;23.70;15.38;;;;;;;5.65;82.53;100779.63;5076948;28;20027;-52
2022/04/04 11:09:12;;;;;;;22.77;14.95;;;;;;;5.67;83.59;100768.38;5069644;28;20471;-53
2022/04/04 11:12:00;;;;;;;21.80;14.00;;;;;;;5.73;82.35;100768.09;5070498;28;20021;-53
2022/04/04 11:14:28;;;;;;;25.83;15.55;;;;;;;5.71;83.79;100761.25;5071471;28;20499;-53
2022/04/04 11:17:05;;;;;;;24.48;14.73;;;;;;;5.73;83.46;100757.13;5071454;28;20089;-52
2022/04/04 11:20:02;;;;;;;22.80;13.45;;;;;;;5.77;83.36;100765.63;5071051;28;20447;-53